Time;durP1;ratioP1;P1;durP2;ratioP2;P2;SDS_P1;SDS_P2;PMS_P1;PMS_P2;Temp;Humidity;BMP_temperature;BMP_pressure;BME280_temperature;BME280_humidity;BME280_pressure;Samples;Min_cycle;Max_cycle;Signal;HPM_P1;HPM_P2
2022/01/22 00:00:16;;;;;;;14.38;8.55;;;;;;;-1.84;52.10;95238.50;5028379;28;20616;-80
2022/01/22 00:02:41;;;;;;;15.38;7.53;;;;;;;-1.87;52.46;95242.16;5045735;28;20068;-80
2022/01/22 00:05:10;;;;;;;10.60;6.15;;;;;;;-1.89;52.20;95241.50;5046850;28;20056;-79
2022/01/22 00:07:36;;;;;;;14.52;6.10;;;;;;;-1.94;52.39;95243.69;5070232;28;20025;-80
2022/01/22 00:10:07;;;;;;;15.02;7.47;;;;;;;-2.00;51.91;95239.16;5028279;28;20409;-80
2022/01/22 00:15:09;;;;;;;10.85;7.30;;;;;;;-2.16;52.64;95249.97;5046113;28;20056;-80
2022/01/22 00:17:34;;;;;;;20.48;7.53;;;;;;;-2.24;52.89;95254.19;5011792;28;20538;-79
2022/01/22 00:20:00;;;;;;;24.33;9.80;;;;;;;-2.18;52.81;95251.06;5012266;28;20485;-79
2022/01/22 00:22:29;;;;;;;22.80;10.05;;;;;;;-2.14;53.09;95252.38;5063569;28;20508;-79
2022/01/22 00:24:58;;;;;;;23.25;9.60;;;;;;;-2.09;52.94;95254.53;5046500;28;20052;-79
2022/01/22 00:27:23;;;;;;;12.60;7.07;;;;;;;-2.09;52.83;95245.13;5061592;28;20031;-79
2022/01/22 00:29:49;;;;;;;19.98;7.95;;;;;;;-1.99;52.73;95250.94;5046779;28;20029;-79
2022/01/22 00:32:14;;;;;;;8.90;5.63;;;;;;;-1.90;52.29;95250.09;5030540;28;20037;-79
2022/01/22 00:34:40;;;;;;;9.27;5.65;;;;;;;-1.89;52.27;95249.16;5029411;28;20021;-79
2022/01/22 00:37:05;;;;;;;9.18;6.05;;;;;;;-1.87;52.15;95249.00;5013508;28;20037;-79
2022/01/22 00:39:31;;;;;;;7.90;5.38;;;;;;;-1.89;51.98;95246.59;5028450;28;20025;-79
2022/01/22 00:41:56;;;;;;;9.35;6.75;;;;;;;-1.92;51.92;95246.09;5012620;28;20063;-79
2022/01/22 00:44:22;;;;;;;17.33;7.18;;;;;;;-1.88;51.91;95244.84;5046427;28;20032;-79
2022/01/22 00:46:50;;;;;;;16.67;7.93;;;;;;;-1.87;51.72;95247.25;5044689;28;20041;-79
2022/01/22 00:49:16;;;;;;;25.80;9.02;;;;;;;-1.84;51.87;95248.72;5030384;28;20115;-79
2022/01/22 00:51:41;;;;;;;14.00;7.32;;;;;;;-1.92;51.63;95241.81;5030315;28;20472;-79
2022/01/22 00:56:42;;;;;;;9.45;5.93;;;;;;;-1.93;51.28;95241.94;5208614;22;20402;-79
2022/01/22 00:59:13;;;;;;;8.70;5.13;;;;;;;-1.92;51.55;95246.91;5042914;28;20037;-79
2022/01/22 01:01:39;;;;;;;8.23;6.22;;;;;;;-1.86;51.70;95246.31;5028348;28;20599;-79
2022/01/22 01:04:04;;;;;;;10.90;5.72;;;;;;;-1.85;51.65;95242.81;5026312;28;20130;-79
2022/01/22 01:06:30;;;;;;;12.68;6.38;;;;;;;-1.84;51.70;95249.50;5026193;28;20503;-79
2022/01/22 01:08:56;;;;;;;19.20;8.05;;;;;;;-1.84;52.18;95249.50;5020912;28;20040;-79
2022/01/22 01:11:24;;;;;;;12.77;7.18;;;;;;;-1.77;51.81;95251.50;5028871;28;20025;-79
2022/01/22 01:13:56;;;;;;;21.98;9.10;;;;;;;-1.67;51.45;95247.13;5030429;28;20037;-79
2022/01/22 01:16:43;;;;;;;27.77;8.30;;;;;;;-1.73;51.33;95240.84;5022045;28;20022;-80
2022/01/22 01:33:05;;;;;;;14.13;6.43;;;;;;;-1.77;50.35;95210.72;5051142;28;20056;-80
2022/01/22 01:35:32;;;;;;;11.45;5.95;;;;;;;-1.72;50.58;95211.06;5049471;28;20469;-80
2022/01/22 01:38:00;;;;;;;28.73;6.47;;;;;;;-1.74;50.43;95202.75;5028391;28;20037;-80
2022/01/22 01:40:27;;;;;;;12.13;6.55;;;;;;;-1.74;50.86;95202.75;5003179;28;20116;-80
2022/01/22 01:45:50;;;;;;;12.95;7.78;;;;;;;-1.72;50.48;95194.03;5024359;28;20080;-80
2022/01/22 01:48:21;;;;;;;14.25;5.60;;;;;;;-1.70;50.07;95198.97;5044034;28;20044;-80
2022/01/22 01:50:47;;;;;;;16.25;7.85;;;;;;;-1.65;50.08;95196.78;5043852;28;20033;-80
2022/01/22 01:58:24;;;;;;;11.95;6.38;;;;;;;-1.53;49.81;95198.94;5028355;28;20041;-80
2022/01/22 02:00:49;;;;;;;11.20;6.63;;;;;;;-1.52;49.26;95199.75;5006335;28;20033;-80
2022/01/22 02:03:15;;;;;;;8.45;5.60;;;;;;;-1.54;49.28;95199.91;5030474;28;20041;-80
2022/01/22 02:05:40;;;;;;;13.77;6.68;;;;;;;-1.54;49.24;95204.19;5029181;28;20036;-79
2022/01/22 02:08:07;;;;;;;8.80;6.15;;;;;;;-1.54;48.82;95199.09;5005649;28;20025;-79
2022/01/22 02:10:36;;;;;;;11.32;6.28;;;;;;;-1.51;48.35;95203.91;4999052;28;20061;-79
2022/01/22 02:23:59;;;;;;;7.85;4.70;;;;;;;-1.54;48.42;95181.25;5023694;28;20052;-80
2022/01/22 02:26:27;;;;;;;8.63;5.00;;;;;;;-1.59;48.94;95186.00;5027763;28;20508;-80
2022/01/22 02:28:53;;;;;;;10.05;5.72;;;;;;;-1.57;48.92;95184.09;5046191;28;20036;-80
2022/01/22 02:31:42;;;;;;;10.93;4.50;;;;;;;-1.70;48.61;95188.78;5044716;28;20037;-80
2022/01/22 02:34:20;;;;;;;6.80;5.00;;;;;;;-1.67;47.88;95178.28;5015962;28;20040;-80
2022/01/22 02:39:16;;;;;;;6.53;5.13;;;;;;;-1.67;48.10;95184.16;5028448;28;20064;-79
2022/01/22 02:41:44;;;;;;;10.13;6.55;;;;;;;-1.72;47.93;95178.72;5012268;28;20029;-78
2022/01/22 02:44:15;;;;;;;13.40;5.70;;;;;;;-1.76;48.47;95179.19;5028877;28;20032;-79
2022/01/22 02:46:42;;;;;;;12.23;7.70;;;;;;;-1.79;48.34;95179.44;5028957;28;20167;-79
2022/01/22 02:49:08;;;;;;;11.15;4.68;;;;;;;-1.95;49.19;95168.19;5019867;28;20029;-79
2022/01/22 02:51:34;;;;;;;9.75;4.78;;;;;;;-1.95;49.05;95177.59;5035728;28;20055;-79
2022/01/22 02:54:00;;;;;;;16.00;5.50;;;;;;;-2.01;49.53;95175.59;5046367;28;20051;-80
2022/01/22 02:56:26;;;;;;;10.98;6.50;;;;;;;-2.06;49.27;95183.69;5027380;28;20045;-79
2022/01/22 02:58:52;;;;;;;15.70;5.88;;;;;;;-2.08;49.40;95183.03;5010597;28;20079;-79
2022/01/22 03:01:18;;;;;;;10.63;5.63;;;;;;;-2.03;49.27;95174.94;5047232;28;20126;-79
2022/01/22 03:03:44;;;;;;;10.52;7.07;;;;;;;-2.04;49.11;95179.25;5018889;28;20504;-79
2022/01/22 03:06:09;;;;;;;16.30;7.78;;;;;;;-2.04;49.46;95176.69;5021662;28;20052;-78
2022/01/22 03:08:37;;;;;;;13.15;7.18;;;;;;;-2.03;49.64;95162.22;5041463;28;20818;-78
2022/01/22 03:11:25;;;;;;;17.33;7.75;;;;;;;-2.12;49.27;95153.69;5010413;28;20025;-79
2022/01/22 03:19:18;;;;;;;15.23;6.20;;;;;;;-2.36;50.23;95153.47;5045803;28;20450;-79
2022/01/22 03:21:55;;;;;;;13.48;5.20;;;;;;;-2.37;50.03;95154.41;5044857;28;20034;-79
2022/01/22 03:27:23;;;;;;;15.95;6.20;;;;;;;-2.59;50.31;95130.16;5023567;28;20095;-79
2022/01/22 03:29:50;;;;;;;15.10;6.82;;;;;;;-2.66;49.53;95147.75;5012391;28;20522;-79
2022/01/22 03:32:16;;;;;;;12.13;5.97;;;;;;;-2.71;49.57;95132.09;5027241;28;20041;-78
2022/01/22 03:34:54;;;;;;;10.57;7.05;;;;;;;-2.74;49.73;95137.47;5001018;28;20541;-78
2022/01/22 03:37:19;;;;;;;18.45;7.40;;;;;;;-2.78;50.50;95125.97;5043800;28;20175;-79
2022/01/22 03:39:44;;;;;;;16.35;8.63;;;;;;;-2.77;50.31;95112.28;5003475;28;20484;-79
2022/01/22 03:42:10;;;;;;;23.02;8.55;;;;;;;-2.72;49.61;95122.88;5029294;28;20538;-79
2022/01/22 03:44:35;;;;;;;15.98;6.68;;;;;;;-2.68;50.06;95116.53;5050133;28;20079;-79
2022/01/22 03:47:01;;;;;;;14.30;6.55;;;;;;;-2.73;50.20;95126.34;5035382;28;20091;-79
2022/01/22 03:49:26;;;;;;;10.82;5.95;;;;;;;-2.76;50.71;95114.72;5029497;28;20060;-79
2022/01/22 03:51:52;;;;;;;17.35;6.97;;;;;;;-2.63;50.42;95116.91;5055660;28;20049;-79
2022/01/22 03:54:17;;;;;;;12.05;6.00;;;;;;;-2.57;49.94;95115.53;5056290;28;20056;-78
2022/01/22 03:56:46;;;;;;;18.08;7.35;;;;;;;-2.44;50.32;95124.44;5039943;28;20060;-79
2022/01/22 03:59:12;;;;;;;17.65;8.13;;;;;;;-2.34;49.67;95110.81;5032803;28;20036;-80
2022/01/22 04:04:31;;;;;;;13.70;6.30;;;;;;;-2.17;49.04;95110.03;5023436;28;20039;-79
2022/01/22 04:09:44;;;;;;;13.88;6.90;;;;;;;-2.13;48.39;95116.41;5024390;28;20040;-80
2022/01/22 04:12:15;;;;;;;9.20;5.93;;;;;;;-2.10;48.79;95111.06;5043974;28;20053;-80
2022/01/22 04:14:48;;;;;;;11.43;6.00;;;;;;;-2.12;48.88;95123.09;5018250;28;20083;-79
2022/01/22 04:24:49;;;;;;;;;;;;;;;-2.17;48.74;95128.66;5004474;28;20424;-80
2022/01/22 04:25:44;;;;;;;21.90;9.98;;;;;;;-2.14;48.43;95130.09;5021287;28;20035;-80
2022/01/22 04:28:12;;;;;;;19.52;10.90;;;;;;;-2.11;48.49;95122.19;5045561;28;20052;-79
2022/01/22 04:30:37;;;;;;;8.68;5.95;;;;;;;-2.06;48.71;95121.75;5043484;28;20025;-80
2022/01/22 04:33:04;;;;;;;13.43;8.52;;;;;;;-2.01;48.53;95110.16;5046301;28;20043;-80
2022/01/22 04:35:30;;;;;;;17.15;8.55;;;;;;;-1.89;48.73;95106.44;5043520;28;20056;-79
2022/01/22 04:37:55;;;;;;;14.55;7.38;;;;;;;-1.84;48.65;95098.31;5019139;28;20024;-79
2022/01/22 04:40:21;;;;;;;16.13;7.78;;;;;;;-1.71;48.50;95091.09;5011182;28;20055;-80
2022/01/22 04:42:47;;;;;;;15.82;7.97;;;;;;;-1.70;48.43;95094.44;5026859;28;20400;-79
2022/01/22 04:45:26;;;;;;;24.52;9.23;;;;;;;-1.75;49.02;95104.31;5001176;28;20030;-79
2022/01/22 04:55:39;;;;;;;16.15;7.88;;;;;;;-1.69;49.32;95094.28;5044944;28;20073;-79
2022/01/22 04:58:05;;;;;;;23.27;9.70;;;;;;;-1.68;49.63;95092.53;5009232;28;20044;-80
2022/01/22 05:00:31;;;;;;;17.15;9.88;;;;;;;-1.67;49.92;95086.50;5042832;28;20075;-79
2022/01/22 05:02:58;;;;;;;16.73;9.32;;;;;;;-1.68;50.23;95085.69;5028404;28;20070;-79
2022/01/22 05:05:24;;;;;;;8.70;5.68;;;;;;;-1.75;50.58;95091.56;4995302;28;20029;-78
2022/01/22 05:07:49;;;;;;;6.32;4.47;;;;;;;-1.77;50.81;95101.09;5022745;28;20056;-75
2022/01/22 05:10:14;;;;;;;6.13;3.83;;;;;;;-1.84;50.74;95094.03;5042045;28;20040;-75
2022/01/22 05:12:40;;;;;;;6.35;4.22;;;;;;;-1.89;51.36;95093.69;5023139;28;20034;-75
2022/01/22 05:15:05;;;;;;;12.75;4.35;;;;;;;-2.00;51.57;95086.25;5022678;28;20389;-75
2022/01/22 05:17:35;;;;;;;7.75;4.10;;;;;;;-2.02;51.69;95083.06;5039734;28;20467;-77
2022/01/22 05:20:07;;;;;;;5.38;3.92;;;;;;;-2.05;51.59;95078.28;5042042;28;20037;-76
2022/01/22 05:22:51;;;;;;;5.68;4.20;;;;;;;-2.03;51.92;95081.47;5040956;28;20068;-75
2022/01/22 05:25:22;;;;;;;6.22;5.40;;;;;;;-2.03;51.84;95088.31;5021703;28;20191;-77
2022/01/22 05:38:21;;;;;;;30.00;12.98;;;;;;;-2.01;50.74;95079.56;5010364;28;20095;-75
2022/01/22 05:40:47;;;;;;;10.25;7.43;;;;;;;-1.98;50.77;95073.38;5012280;28;20025;-75
2022/01/22 05:43:12;;;;;;;10.15;5.88;;;;;;;-2.02;51.20;95088.16;5004913;28;20079;-75
2022/01/22 05:45:38;;;;;;;15.07;9.43;;;;;;;-2.01;51.84;95094.88;5021707;28;20037;-75
2022/01/22 05:48:03;;;;;;;10.98;7.15;;;;;;;-2.01;51.81;95094.88;5039548;28;20025;-75
2022/01/22 05:50:33;;;;;;;9.52;6.90;;;;;;;-1.98;51.86;95086.91;5022227;28;20040;-75
2022/01/22 05:53:04;;;;;;;20.23;9.45;;;;;;;-2.02;52.39;95087.38;5021532;28;20065;-75
2022/01/22 06:00:57;;;;;;;12.57;6.85;;;;;;;-2.06;53.18;95086.88;5040363;28;20118;-76
2022/01/22 06:03:23;;;;;;;13.20;7.00;;;;;;;-2.01;52.56;95088.97;5039984;28;20481;-76
2022/01/22 06:05:48;;;;;;;20.88;11.10;;;;;;;-1.99;52.81;95077.69;5021176;28;20736;-76
2022/01/22 06:08:16;;;;;;;18.00;9.98;;;;;;;-1.92;52.59;95078.69;5021341;28;20029;-76
2022/01/22 06:11:06;;;;;;;18.92;10.32;;;;;;;-1.78;52.49;95074.81;5019859;28;20529;-75
2022/01/22 06:13:43;;;;;;;11.93;7.97;;;;;;;-1.75;52.06;95078.81;5007862;28;20038;-75
2022/01/22 06:16:12;;;;;;;22.90;10.38;;;;;;;-1.73;52.48;95087.91;5037773;28;20112;-75
2022/01/22 06:18:38;;;;;;;12.63;7.78;;;;;;;-1.67;51.93;95076.28;5038733;28;20122;-75
2022/01/22 06:21:04;;;;;;;12.27;7.78;;;;;;;-1.63;52.15;95067.38;5038429;28;20110;-75
2022/01/22 06:23:30;;;;;;;13.02;7.47;;;;;;;-1.65;51.87;95069.28;5039694;28;20511;-75
2022/01/22 06:25:58;;;;;;;13.57;7.82;;;;;;;-1.71;51.51;95070.69;5021302;28;20141;-76
2022/01/22 06:28:23;;;;;;;11.40;7.05;;;;;;;-1.79;51.77;95082.59;5038593;28;20389;-76
2022/01/22 06:30:49;;;;;;;18.13;11.30;;;;;;;-1.87;51.64;95076.50;5039492;28;20040;-76
2022/01/22 06:33:14;;;;;;;14.90;8.13;;;;;;;-1.94;51.62;95078.06;5012340;28;20062;-75
2022/01/22 06:35:42;;;;;;;10.25;7.20;;;;;;;-1.95;51.54;95073.91;5038440;28;20041;-76
2022/01/22 06:38:09;;;;;;;8.48;6.00;;;;;;;-1.88;51.49;95077.44;5020402;28;20053;-75
2022/01/22 06:43:03;;;;;;;14.00;6.72;;;;;;;-1.87;51.14;95063.75;5020760;28;20033;-76
2022/01/22 06:45:28;;;;;;;13.48;7.40;;;;;;;-1.75;51.38;95060.97;5030387;28;20031;-74
2022/01/22 06:47:56;;;;;;;14.90;8.60;;;;;;;-1.65;50.44;95049.69;5023545;28;20030;-75
2022/01/22 06:50:25;;;;;;;10.98;6.80;;;;;;;-1.59;50.39;95051.66;5024816;28;20051;-75
2022/01/22 06:52:58;;;;;;;23.50;11.15;;;;;;;-1.58;50.13;95049.91;4990585;28;20041;-75
2022/01/22 06:55:37;;;;;;;9.75;7.22;;;;;;;-1.60;50.31;95055.16;5042342;28;20045;-78
2022/01/22 06:58:03;;;;;;;12.02;7.90;;;;;;;-1.54;49.53;95035.91;5042522;28;20029;-78
2022/01/22 07:00:28;;;;;;;15.73;8.32;;;;;;;-1.55;49.93;95040.19;5028262;28;20040;-78
2022/01/22 07:02:53;;;;;;;17.05;9.73;;;;;;;-1.56;49.65;95037.81;5010790;28;20029;-78
2022/01/22 07:05:19;;;;;;;27.13;12.02;;;;;;;-1.56;50.05;95037.81;5026689;28;20040;-78
2022/01/22 07:07:45;;;;;;;27.42;12.75;;;;;;;-1.47;49.66;95048.81;5026985;28;20041;-78
2022/01/22 07:10:10;;;;;;;41.35;17.58;;;;;;;-1.43;49.73;95037.41;5025396;28;20024;-78
2022/01/22 07:12:36;;;;;;;24.30;12.73;;;;;;;-1.18;49.28;95043.38;5044719;28;20029;-78
2022/01/22 07:15:03;;;;;;;31.88;11.45;;;;;;;-1.01;48.66;95042.47;5044998;28;20021;-78
2022/01/22 07:17:34;;;;;;;28.13;12.93;;;;;;;-0.81;48.96;95048.16;5026818;28;20476;-78
2022/01/22 07:20:00;;;;;;;15.48;8.75;;;;;;;-0.52;47.52;95050.25;5043500;28;20026;-78
2022/01/22 07:22:40;;;;;;;22.48;11.30;;;;;;;-0.30;47.99;95044.53;5001803;28;20050;-78
2022/01/22 07:25:08;;;;;;;12.02;7.82;;;;;;;0.03;47.59;95053.00;5013552;28;20041;-78
2022/01/22 07:27:33;;;;;;;19.23;8.77;;;;;;;0.26;46.97;95048.00;5026955;28;20032;-79
2022/01/22 07:29:59;;;;;;;15.18;9.38;;;;;;;0.55;46.77;95043.16;5024460;28;20025;-76
2022/01/22 07:32:29;;;;;;;24.60;10.70;;;;;;;0.82;46.77;95028.34;5031478;28;20025;-77
2022/01/22 07:34:54;;;;;;;12.85;6.60;;;;;;;1.05;45.18;95029.19;5023592;28;20026;-76
2022/01/22 07:37:20;;;;;;;18.33;9.32;;;;;;;1.17;44.68;95022.75;5041223;28;20092;-76
2022/01/22 07:39:45;;;;;;;17.67;8.55;;;;;;;1.16;44.21;95021.16;5039862;28;20036;-75
2022/01/22 07:42:11;;;;;;;25.80;11.60;;;;;;;1.10;45.68;95016.69;5040968;28;20034;-76
2022/01/22 07:44:36;;;;;;;18.63;10.10;;;;;;;1.24;44.97;95016.94;5023920;28;20040;-76
2022/01/22 07:47:02;;;;;;;23.92;11.93;;;;;;;1.30;44.53;95016.25;5023261;28;20034;-76
2022/01/22 07:49:30;;;;;;;26.77;14.23;;;;;;;1.39;44.84;95025.50;5025483;28;20037;-75
2022/01/22 07:51:55;;;;;;;8.45;5.72;;;;;;;1.40;43.97;95022.75;5006929;28;20044;-76
2022/01/22 07:54:24;;;;;;;12.32;6.40;;;;;;;1.33;44.26;95018.50;5022865;28;20029;-76
2022/01/22 07:56:50;;;;;;;25.02;11.77;;;;;;;1.32;43.91;95015.13;5040410;28;20033;-81
2022/01/22 07:59:15;;;;;;;33.33;14.05;;;;;;;1.29;43.92;95017.22;5009567;28;20033;-76
2022/01/22 08:01:43;;;;;;;49.30;16.83;;;;;;;1.36;43.20;95020.72;4997847;28;20036;-76
2022/01/22 08:04:09;;;;;;;47.42;15.63;;;;;;;1.22;43.52;95018.88;5041993;28;20037;-76
2022/01/22 08:06:34;;;;;;;35.20;14.90;;;;;;;1.29;42.62;95014.66;5033079;28;20040;-81
2022/01/22 08:09:00;;;;;;;33.50;14.27;;;;;;;1.30;43.74;95011.94;5051242;28;20038;-81
2022/01/22 08:11:25;;;;;;;26.42;11.10;;;;;;;1.53;43.49;95022.19;5051431;28;20067;-81
2022/01/22 08:13:51;;;;;;;9.02;6.70;;;;;;;1.60;43.66;95012.84;5035426;28;20041;-82
2022/01/22 08:16:19;;;;;;;20.40;10.88;;;;;;;1.56;44.01;95001.34;5031918;28;20056;-80
2022/01/22 08:18:45;;;;;;;14.95;9.38;;;;;;;1.61;44.04;95003.38;5030196;28;20029;-80
2022/01/22 08:21:10;;;;;;;21.88;10.88;;;;;;;1.68;44.05;94997.41;5048066;28;20029;-80
2022/01/22 08:23:38;;;;;;;17.00;8.82;;;;;;;1.78;43.89;94990.28;5030604;28;20052;-80
2022/01/22 08:26:08;;;;;;;13.75;8.57;;;;;;;1.90;42.98;95002.69;5026310;28;20029;-75
2022/01/22 08:31:26;;;;;;;14.48;6.55;;;;;;;1.79;42.76;94997.03;5025126;28;20052;-77
2022/01/22 08:36:40;;;;;;;9.63;6.80;;;;;;;1.60;42.68;94997.47;5031740;28;20114;-79
2022/01/22 08:39:06;;;;;;;14.70;8.25;;;;;;;1.61;43.41;94988.81;5016211;28;20570;-79
2022/01/22 08:41:32;;;;;;;21.02;10.38;;;;;;;1.59;43.79;94992.53;5024337;28;20119;-78
2022/01/22 08:43:58;;;;;;;9.38;5.45;;;;;;;1.49;43.84;94991.00;5023317;28;20526;-79
2022/01/22 08:46:24;;;;;;;10.10;6.85;;;;;;;1.29;44.14;94989.03;5021188;28;20060;-79
2022/01/22 08:48:49;;;;;;;17.45;8.55;;;;;;;1.15;44.42;94993.94;5027943;28;20030;-80
2022/01/22 08:51:15;;;;;;;16.55;9.68;;;;;;;1.18;44.81;94980.78;5030698;28;20385;-79
2022/01/22 08:53:41;;;;;;;12.05;6.32;;;;;;;0.93;45.29;94984.44;5019516;28;20021;-81
2022/01/22 08:56:08;;;;;;;19.88;10.88;;;;;;;1.03;45.98;94990.16;5018630;28;20055;-80
2022/01/22 08:58:33;;;;;;;19.92;9.50;;;;;;;1.14;45.98;95000.03;5013317;28;20040;-80
2022/01/22 09:00:59;;;;;;;24.52;11.95;;;;;;;1.27;45.51;94989.22;5028392;28;20439;-80
2022/01/22 09:03:25;;;;;;;19.02;9.88;;;;;;;1.30;44.53;94980.38;5030791;28;20109;-79
2022/01/22 09:05:51;;;;;;;18.00;6.82;;;;;;;1.28;44.65;94982.31;5028418;28;20049;-80
2022/01/22 09:08:16;;;;;;;6.43;4.80;;;;;;;1.12;44.87;94996.81;5036172;28;20481;-80
2022/01/22 09:10:42;;;;;;;11.77;7.65;;;;;;;1.05;45.67;95003.59;5016246;28;20044;-79
2022/01/22 09:13:08;;;;;;;17.88;8.77;;;;;;;0.97;45.72;95000.25;5014977;28;20029;-79
2022/01/22 09:15:34;;;;;;;16.15;8.63;;;;;;;0.94;44.95;95000.59;5012253;28;20479;-79
2022/01/22 09:18:00;;;;;;;27.40;12.05;;;;;;;0.89;44.91;94994.22;5024906;28;20076;-81
2022/01/22 09:23:17;;;;;;;17.98;8.48;;;;;;;0.87;44.71;94980.00;4997884;28;20504;-80
2022/01/22 09:25:43;;;;;;;15.25;7.88;;;;;;;0.71;44.79;94982.66;5020784;28;20030;-79
2022/01/22 09:28:11;;;;;;;23.75;10.52;;;;;;;0.66;45.50;94982.34;5004401;28;20049;-79
2022/01/22 09:30:43;;;;;;;38.78;15.07;;;;;;;0.75;45.66;94991.56;5028067;28;20033;-79
2022/01/22 09:33:11;;;;;;;40.03;16.33;;;;;;;0.84;44.85;94980.34;5012073;28;20048;-79
2022/01/22 09:35:36;;;;;;;29.55;15.98;;;;;;;0.87;45.12;94980.00;5013126;28;20032;-79
2022/01/22 09:38:04;;;;;;;26.25;14.05;;;;;;;0.93;44.40;94965.72;5032516;28;20025;-78
2022/01/22 09:40:30;;;;;;;24.48;12.10;;;;;;;0.96;44.09;94967.94;5003550;28;20056;-81
2022/01/22 09:42:57;;;;;;;19.77;11.07;;;;;;;0.95;43.55;94962.03;5019963;28;20037;-80
2022/01/22 09:45:22;;;;;;;20.58;10.23;;;;;;;0.94;44.27;94960.44;5026870;28;20066;-79
2022/01/22 09:47:48;;;;;;;15.85;6.10;;;;;;;0.89;44.34;94948.16;5018290;28;20432;-78
2022/01/22 09:50:16;;;;;;;9.98;7.22;;;;;;;0.77;44.51;94938.47;5022636;28;20039;-79
2022/01/22 09:52:42;;;;;;;6.78;6.00;;;;;;;0.68;44.91;94934.38;4995306;28;20044;-79
2022/01/22 09:55:10;;;;;;;19.45;11.15;;;;;;;0.71;45.04;94928.91;5048210;28;20092;-76
2022/01/22 09:57:37;;;;;;;27.98;13.02;;;;;;;0.69;44.70;94926.50;5029887;28;20115;-76
2022/01/22 10:00:05;;;;;;;13.50;7.65;;;;;;;0.71;44.78;94928.91;5029378;28;20064;-77
2022/01/22 10:02:30;;;;;;;27.30;14.13;;;;;;;0.74;45.18;94923.44;5014445;28;20476;-77
2022/01/22 10:04:56;;;;;;;22.92;9.95;;;;;;;0.82;44.51;94920.84;5017941;28;20029;-77
2022/01/22 10:07:22;;;;;;;23.50;12.52;;;;;;;0.92;44.93;94925.75;5015161;28;20032;-78
2022/01/22 10:10:05;;;;;;;26.65;13.18;;;;;;;1.05;45.75;94920.84;5034674;28;20120;-78
2022/01/22 10:12:45;;;;;;;25.63;13.20;;;;;;;1.08;45.30;94913.63;5016072;28;20037;-78
2022/01/22 10:15:20;;;;;;;15.27;8.90;;;;;;;1.09;44.79;94928.03;5020037;28;20032;-77
2022/01/22 10:17:50;;;;;;;25.20;13.10;;;;;;;1.15;46.03;94922.25;5037929;28;20064;-77
2022/01/22 10:20:24;;;;;;;4.85;4.25;;;;;;;1.02;44.69;94919.44;5029251;28;20033;-78
2022/01/22 10:22:55;;;;;;;11.25;6.78;;;;;;;0.91;46.26;94914.69;5046568;28;20505;-78
2022/01/22 10:25:28;;;;;;;21.08;10.35;;;;;;;0.98;46.52;94909.72;5016207;28;20645;-79
2022/01/22 10:28:04;;;;;;;26.67;13.10;;;;;;;1.08;47.24;94913.63;5028883;28;20086;-79
2022/01/22 10:30:43;;;;;;;16.58;9.38;;;;;;;1.09;46.54;94910.09;5027155;28;20037;-78
2022/01/22 10:33:21;;;;;;;8.27;6.35;;;;;;;0.93;45.13;94899.97;5029016;28;20044;-78
2022/01/22 10:35:47;;;;;;;26.98;11.23;;;;;;;0.90;45.34;94892.63;5028769;28;20037;-79
2022/01/22 10:38:13;;;;;;;18.00;10.63;;;;;;;1.03;46.04;94897.97;5018112;28;20040;-78
2022/01/22 10:40:41;;;;;;;20.60;9.23;;;;;;;1.20;44.61;94894.34;5018498;28;20482;-78
2022/01/22 10:43:16;;;;;;;16.83;9.40;;;;;;;1.17;42.39;94879.31;5029269;28;20052;-78
2022/01/22 10:45:42;;;;;;;15.93;8.02;;;;;;;1.17;42.66;94886.22;5044692;28;20053;-77
2022/01/22 10:48:20;;;;;;;24.40;11.73;;;;;;;1.20;42.93;94878.97;5014373;28;20552;-77
2022/01/22 10:50:48;;;;;;;11.30;6.75;;;;;;;1.31;41.45;94866.72;5040559;28;20496;-77
2022/01/22 10:53:16;;;;;;;13.52;7.32;;;;;;;1.31;42.11;94875.22;5024437;28;20025;-78
2022/01/22 10:56:03;;;;;;;17.40;8.35;;;;;;;1.33;41.68;94877.59;5043619;28;20033;-77
2022/01/22 10:58:28;;;;;;;23.38;10.90;;;;;;;1.29;41.51;94876.31;5027884;28;20041;-78
2022/01/22 11:00:59;;;;;;;19.45;10.30;;;;;;;1.25;41.69;94881.00;5026048;28;20034;-78
2022/01/22 11:03:26;;;;;;;24.98;11.10;;;;;;;1.18;40.78;94880.91;4992226;28;20146;-79
2022/01/22 11:05:53;;;;;;;22.27;10.90;;;;;;;1.06;41.90;94884.03;5023625;28;20053;-78
2022/01/22 11:08:19;;;;;;;16.27;10.32;;;;;;;1.02;42.10;94875.91;5008103;28;20034;-77
2022/01/22 11:10:45;;;;;;;17.05;10.35;;;;;;;1.08;42.56;94871.84;5026301;28;20045;-77
2022/01/22 11:13:10;;;;;;;14.93;8.20;;;;;;;1.13;42.08;94872.94;4997845;28;20411;-77
2022/01/22 11:15:37;;;;;;;23.58;12.63;;;;;;;1.26;41.51;94861.31;5023562;28;20029;-77
2022/01/22 11:18:02;;;;;;;19.02;11.63;;;;;;;1.40;41.83;94858.78;5014230;28;20369;-77
2022/01/22 11:20:33;;;;;;;13.70;8.80;;;;;;;1.58;42.44;94860.22;5010269;28;20028;-77
2022/01/22 11:22:59;;;;;;;18.92;7.78;;;;;;;1.72;40.92;94849.97;5022731;28;20458;-77
2022/01/22 11:25:25;;;;;;;21.85;9.02;;;;;;;1.75;40.75;94856.53;5022210;28;20045;-76
2022/01/22 11:27:50;;;;;;;15.38;9.32;;;;;;;1.91;40.88;94842.72;5023683;28;20593;-77
2022/01/22 11:30:16;;;;;;;8.65;6.25;;;;;;;2.12;40.45;94844.59;5014111;28;20065;-76
2022/01/22 11:33:01;;;;;;;11.68;7.15;;;;;;;2.14;40.45;94840.88;5023159;28;20029;-77
2022/01/22 11:35:53;;;;;;;17.00;6.93;;;;;;;2.38;40.55;94832.06;5024617;28;20048;-78
2022/01/22 11:38:27;;;;;;;22.40;12.82;;;;;;;2.51;40.21;94831.41;5033388;28;20040;-77
2022/01/22 11:41:23;;;;;;;17.38;9.25;;;;;;;2.50;40.97;94827.25;5047428;28;20072;-78
2022/01/22 11:44:14;;;;;;;12.52;7.38;;;;;;;2.48;40.25;94832.59;5002925;28;20040;-75
2022/01/22 11:46:46;;;;;;;13.88;6.88;;;;;;;2.39;40.07;94836.22;5029987;28;20100;-77
2022/01/22 11:49:26;;;;;;;17.00;11.07;;;;;;;2.40;41.04;94836.03;5047783;28;20027;-77
2022/01/22 11:52:11;;;;;;;21.08;9.32;;;;;;;2.53;41.26;94837.16;5041763;28;20529;-77
2022/01/22 11:54:59;;;;;;;9.40;6.53;;;;;;;2.35;41.33;94848.63;5041525;28;20045;-76
2022/01/22 11:57:27;;;;;;;12.50;7.30;;;;;;;2.29;41.95;94836.53;5023732;28;20028;-77
2022/01/22 12:00:22;;;;;;;8.30;5.13;;;;;;;2.13;41.72;94833.38;5024297;28;20056;-77
2022/01/22 12:03:06;;;;;;;25.83;8.55;;;;;;;2.16;42.46;94828.66;5024770;28;20087;-77
2022/01/22 12:05:31;;;;;;;14.70;9.07;;;;;;;2.02;42.54;94827.72;5040587;28;20456;-77
2022/01/22 12:07:58;;;;;;;16.30;7.97;;;;;;;1.96;43.18;94830.19;5022176;28;20044;-76
2022/01/22 12:10:36;;;;;;;3.72;3.08;;;;;;;1.82;44.80;94825.88;5045707;23;20705;-78
2022/01/22 12:16:17;;;;;;;6.95;3.72;;;;;;;1.31;46.92;94833.44;5010654;28;20502;-77
2022/01/22 12:18:51;;;;;;;4.20;3.80;;;;;;;1.26;47.72;94817.75;5010676;28;20080;-78
2022/01/22 12:21:37;;;;;;;7.57;4.70;;;;;;;1.12;48.88;94816.75;4996416;28;20026;-78
2022/01/22 12:24:12;;;;;;;18.90;5.32;;;;;;;1.00;50.44;94821.53;5011210;28;20049;-78
2022/01/22 12:26:39;;;;;;;4.80;4.40;;;;;;;0.77;51.83;94831.75;4981576;28;20041;-79
2022/01/22 12:29:36;;;;;;;6.70;4.13;;;;;;;0.52;53.80;94838.81;5106459;22;20107;-78
2022/01/22 12:32:15;;;;;;;7.40;5.75;;;;;;;0.51;53.71;94821.06;5014635;28;20040;-75
2022/01/22 12:35:02;;;;;;;20.63;5.55;;;;;;;0.57;52.96;94831.41;5032168;28;20029;-77
2022/01/22 12:37:29;;;;;;;16.15;8.90;;;;;;;0.71;52.22;94816.31;5032628;28;20132;-79
2022/01/22 12:39:56;;;;;;;14.85;7.40;;;;;;;0.84;50.86;94824.22;4996888;28;20041;-77
2022/01/22 12:42:34;;;;;;;10.27;5.03;;;;;;;0.83;49.59;94815.72;5011412;28;20535;-77
2022/01/22 12:45:02;;;;;;;5.95;4.63;;;;;;;0.87;49.82;94821.31;4998435;28;20038;-77
2022/01/22 12:47:28;;;;;;;15.75;8.57;;;;;;;0.99;49.72;94814.81;5010980;28;20033;-77
2022/01/22 12:50:02;;;;;;;21.00;10.05;;;;;;;1.00;50.09;94813.84;4994976;28;20030;-77
2022/01/22 12:52:27;;;;;;;17.30;8.32;;;;;;;1.11;49.28;94818.53;4980004;28;20481;-77
2022/01/22 12:54:57;;;;;;;10.73;6.25;;;;;;;1.16;49.13;94810.34;5011456;28;20112;-77
2022/01/22 12:57:25;;;;;;;14.77;8.38;;;;;;;1.29;49.38;94809.72;4995815;28;20029;-77
2022/01/22 13:00:13;;;;;;;7.50;5.00;;;;;;;1.24;48.41;94796.66;4978656;28;20064;-77
2022/01/22 13:02:43;;;;;;;16.48;8.55;;;;;;;1.22;47.89;94794.28;5011511;28;20037;-77
2022/01/22 13:05:10;;;;;;;8.20;4.95;;;;;;;1.16;47.39;94790.66;5012455;28;20531;-76
2022/01/22 13:07:46;;;;;;;15.63;7.35;;;;;;;1.11;47.82;94789.56;4995168;28;20033;-77
2022/01/22 13:10:14;;;;;;;24.33;11.52;;;;;;;1.06;47.48;94779.84;5028674;28;20048;-77
2022/01/22 13:12:44;;;;;;;24.48;12.38;;;;;;;1.05;48.01;94774.91;4979315;28;20529;-76
2022/01/22 13:15:11;;;;;;;25.20;12.55;;;;;;;1.06;48.64;94774.72;5010568;28;20034;-76